Wolf 59 — CGBP — position and weather

sailwx.info

Track history (hours):
 
Tides and Currents Weather Stations Pressure Air Temp Water Temp Dewpoint Dewpoint Depression Visibility Wind Speed Wind Dir Waves Ship Positions

Wolf 59

Last reported at 2016-Feb-14 05:33 UTC. Time now 2016-Feb-14 05:46 UTC.
Position N 48°51' W 123°30'.

; draft 3.1 m.

Type: Military. MMSI: 316011515.

Date/timePositionNaut miles runAvg speedWind from/ knotsBaromVisibWave heightAir tempDewpointWater temp
2016-Feb-14 05:33N 48°51' W 123°30'0 0.0
2016-Feb-14 04:33N 48°51' W 123°30'0 0.0
2016-Feb-14 03:33N 48°51' W 123°30'0 0.0
2016-Feb-14 02:33N 48°51' W 123°30'0 0.2
2016-Feb-14 01:33N 48°51' W 123°30'8 8.1
2016-Feb-14 00:33N 48°45' W 123°22'3 1.1
2016-Feb-13 22:17N 48°43' W 123°25'6 8.7
2016-Feb-13 21:33N 48°39' W 123°19'1413.7
2016-Feb-13 20:34N 48°27' W 123°09'1211.8
2016-Feb-13 19:32N 48°21' W 123°26'5 1.1
2016-Feb-13 15:14N 48°26' W 123°26'1 0.0
2016-Feb-12 21:33N 48°25' W 123°27'2 2.1
2016-Feb-12 20:33N 48°24' W 123°25'3 2.9
2016-Feb-12 19:29N 48°26' W 123°27'1 0.5
2016-Feb-12 18:13N 48°26' W 123°26'0 0.0
2016-Feb-12 17:32N 48°26' W 123°26'  
2016-Feb-10 05:10N 48°26' W 123°26'0 0.0
2016-Feb-08 05:04N 48°26' W 123°26'0 0.0
2016-Feb-08 04:22N 48°26' W 123°26'0 0.0
2016-Feb-07 20:13N 48°26' W 123°26'0 0.0
2016-Feb-07 16:13N 48°26' W 123°26'0 0.0
2016-Feb-07 14:13N 48°26' W 123°26'0 0.0
2016-Feb-07 11:19N 48°26' W 123°26'0 0.0
2016-Feb-06 23:25N 48°26' W 123°26'0 0.0
2016-Feb-06 19:07N 48°26' W 123°26'0 0.0
2016-Feb-06 15:31N 48°26' W 123°26'0 0.0
2016-Feb-06 10:31N 48°26' W 123°26'0 0.0
2016-Feb-06 09:31N 48°26' W 123°26'0 0.0
2016-Feb-06 08:25N 48°26' W 123°26'0 0.0
2016-Feb-06 03:16N 48°26' W 123°26'1 0.1
2016-Feb-05 18:21N 48°26' W 123°27'1 1.0
2016-Feb-05 17:32N 48°26' W 123°26'0 0.0
2016-Feb-05 16:32N 48°26' W 123°26'0 0.0
2016-Feb-05 11:32N 48°26' W 123°26'0 0.0
2016-Feb-05 08:32N 48°26' W 123°26'2 0.4
2016-Feb-05 04:24N 48°24' W 123°26'0 0.1
2016-Feb-05 03:33N 48°24' W 123°27'0 0.0
2016-Feb-05 02:32N 48°24' W 123°27'0 0.0
2016-Feb-05 01:32N 48°24' W 123°27'0 0.3
2016-Feb-05 00:33N 48°24' W 123°27'4 4.0
2016-Feb-04 23:33N 48°23' W 123°21'1010.2
2016-Feb-04 22:33N 48°32' W 123°13'1211.5
2016-Feb-04 21:33N 48°43' W 123°13'9 9.3
2016-Feb-04 20:33N 48°50' W 123°03'1312.7
2016-Feb-04 19:34N 48°57' W 123°19'8 8.2
2016-Feb-04 18:34N 49°01' W 123°29'8 8.2
2016-Feb-04 17:33N 49°09' W 123°35'8 7.8
2016-Feb-04 16:33N 49°13' W 123°45'7 7.1
2016-Feb-04 15:31N 49°10' W 123°56'0 0.0
2016-Feb-04 14:31N 49°10' W 123°56'0 0.0
2016-Feb-04 13:31N 49°10' W 123°56'0 0.0
2016-Feb-04 12:31N 49°10' W 123°56'0 0.0
2016-Feb-04 11:31N 49°10' W 123°56'0 0.0
2016-Feb-04 10:31N 49°10' W 123°56'0 0.0
2016-Feb-04 09:31N 49°10' W 123°56'0 0.0
2016-Feb-04 08:31N 49°10' W 123°56'0 0.0
2016-Feb-04 07:31N 49°10' W 123°56'0 0.0
2016-Feb-04 06:31N 49°10' W 123°56'  
Track history (hours):
 
Tides and Currents Weather Stations Pressure Air Temp Water Temp Dewpoint Dewpoint Depression Visibility Wind Speed Wind Dir Waves Ship Positions

Wolf 59

Last reported at 2016-Feb-14 05:33 UTC. Time now 2016-Feb-14 05:46 UTC.
Position N 48°51' W 123°30'.

; draft 3.1 m.

Type: Military. MMSI: 316011515.

Date/timePositionNaut miles runAvg speedWind from/ knotsBaromVisibWave heightAir tempDewpointWater temp
2016-Feb-14 05:33N 48°51' W 123°30'0 0.0
2016-Feb-14 04:33N 48°51' W 123°30'0 0.0
2016-Feb-14 03:33N 48°51' W 123°30'0 0.0
2016-Feb-14 02:33N 48°51' W 123°30'0 0.2
2016-Feb-14 01:33N 48°51' W 123°30'8 8.1
2016-Feb-14 00:33N 48°45' W 123°22'3 1.1
2016-Feb-13 22:17N 48°43' W 123°25'6 8.7
2016-Feb-13 21:33N 48°39' W 123°19'1413.7
2016-Feb-13 20:34N 48°27' W 123°09'1211.8
2016-Feb-13 19:32N 48°21' W 123°26'5 1.1
2016-Feb-13 15:14N 48°26' W 123°26'1 0.0
2016-Feb-12 21:33N 48°25' W 123°27'2 2.1
2016-Feb-12 20:33N 48°24' W 123°25'3 2.9
2016-Feb-12 19:29N 48°26' W 123°27'1 0.5
2016-Feb-12 18:13N 48°26' W 123°26'0 0.0
2016-Feb-12 17:32N 48°26' W 123°26'  
2016-Feb-10 05:10N 48°26' W 123°26'0 0.0
2016-Feb-08 05:04N 48°26' W 123°26'0 0.0
2016-Feb-08 04:22N 48°26' W 123°26'0 0.0
2016-Feb-07 20:13N 48°26' W 123°26'0 0.0
2016-Feb-07 16:13N 48°26' W 123°26'0 0.0
2016-Feb-07 14:13N 48°26' W 123°26'0 0.0
2016-Feb-07 11:19N 48°26' W 123°26'0 0.0
2016-Feb-06 23:25N 48°26' W 123°26'0 0.0
2016-Feb-06 19:07N 48°26' W 123°26'0 0.0
2016-Feb-06 15:31N 48°26' W 123°26'0 0.0
2016-Feb-06 10:31N 48°26' W 123°26'0 0.0
2016-Feb-06 09:31N 48°26' W 123°26'0 0.0
2016-Feb-06 08:25N 48°26' W 123°26'0 0.0
2016-Feb-06 03:16N 48°26' W 123°26'1 0.1
2016-Feb-05 18:21N 48°26' W 123°27'1 1.0
2016-Feb-05 17:32N 48°26' W 123°26'0 0.0
2016-Feb-05 16:32N 48°26' W 123°26'0 0.0
2016-Feb-05 11:32N 48°26' W 123°26'0 0.0
2016-Feb-05 08:32N 48°26' W 123°26'2 0.4
2016-Feb-05 04:24N 48°24' W 123°26'0 0.1
2016-Feb-05 03:33N 48°24' W 123°27'0 0.0
2016-Feb-05 02:32N 48°24' W 123°27'0 0.0
2016-Feb-05 01:32N 48°24' W 123°27'0 0.3
2016-Feb-05 00:33N 48°24' W 123°27'4 4.0
2016-Feb-04 23:33N 48°23' W 123°21'1010.2
2016-Feb-04 22:33N 48°32' W 123°13'1211.5
2016-Feb-04 21:33N 48°43' W 123°13'9 9.3
2016-Feb-04 20:33N 48°50' W 123°03'1312.7
2016-Feb-04 19:34N 48°57' W 123°19'8 8.2
2016-Feb-04 18:34N 49°01' W 123°29'8 8.2
2016-Feb-04 17:33N 49°09' W 123°35'8 7.8
2016-Feb-04 16:33N 49°13' W 123°45'7 7.1
2016-Feb-04 15:31N 49°10' W 123°56'0 0.0
2016-Feb-04 14:31N 49°10' W 123°56'0 0.0
2016-Feb-04 13:31N 49°10' W 123°56'0 0.0
2016-Feb-04 12:31N 49°10' W 123°56'0 0.0
2016-Feb-04 11:31N 49°10' W 123°56'0 0.0
2016-Feb-04 10:31N 49°10' W 123°56'0 0.0
2016-Feb-04 09:31N 49°10' W 123°56'0 0.0
2016-Feb-04 08:31N 49°10' W 123°56'0 0.0
2016-Feb-04 07:31N 49°10' W 123°56'0 0.0
2016-Feb-04 06:31N 49°10' W 123°56'  

Dump ship's entire track history